Time,TemperatureF,DewpointF,PressureIn,WindDirection,WindDirectionDegrees,WindSpeedMPH,WindSpeedGustMPH,Humidity,HourlyPrecipIn,Conditions,Clouds,dailyrainin,SoftwareType,DateUTC
2013-08-14 00:00:00,56.9,51.8,30.03,North,-999,0.0,0.0,83,0.00,,,-99.99,WeatherLink 5.7,2013-08-14 05:00:00,
2013-08-14 00:15:00,56.2,51.1,30.04,North,-999,0.0,0.0,83,0.00,,,-99.99,WeatherLink 5.7,2013-08-14 05:15:00,
2013-08-14 00:30:00,55.4,50.6,30.04,North,-999,0.0,0.0,84,0.00,,,-99.99,WeatherLink 5.7,2013-08-14 05:30:00,
2013-08-14 00:45:00,54.7,50.0,30.04,North,-999,0.0,0.0,84,0.00,,,-99.99,WeatherLink 5.7,2013-08-14 05:45:00,
2013-08-14 01:00:00,54.1,49.7,30.04,North,-999,0.0,0.0,85,0.00,,,-99.99,WeatherLink 5.7,2013-08-14 06:00:00,
2013-08-14 01:15:00,53.5,49.4,30.04,North,-999,0.0,0.0,86,0.00,,,-99.99,WeatherLink 5.7,2013-08-14 06:15:00,
2013-08-14 01:30:00,52.9,49.1,30.04,North,-999,0.0,0.0,87,0.00,,,-99.99,WeatherLink 5.7,2013-08-14 06:30:00,
2013-08-14 01:45:00,52.5,49.0,30.04,North,-999,0.0,0.0,88,0.00,,,-99.99,WeatherLink 5.7,2013-08-14 06:45:00,
2013-08-14 02:00:00,52.0,48.9,30.05,North,-999,0.0,0.0,89,0.00,,,-99.99,WeatherLink 5.7,2013-08-14 07:00:00,
2013-08-14 02:15:00,51.6,48.8,30.05,North,-999,0.0,0.0,90,0.00,,,-99.99,WeatherLink 5.7,2013-08-14 07:15:00,
2013-08-14 02:30:00,51.1,48.3,30.05,North,-999,0.0,0.0,90,0.00,,,-99.99,WeatherLink 5.7,2013-08-14 07:30:00,
2013-08-14 02:45:00,50.5,48.0,30.05,North,-999,0.0,0.0,91,0.00,,,-99.99,WeatherLink 5.7,2013-08-14 07:45:00,
2013-08-14 03:00:00,50.1,47.6,30.05,North,-999,0.0,0.0,91,0.00,,,-99.99,WeatherLink 5.7,2013-08-14 08:00:00,
2013-08-14 03:15:00,49.6,47.4,30.05,North,-999,0.0,0.0,92,0.00,,,-99.99,WeatherLink 5.7,2013-08-14 08:15:00,
2013-08-14 03:30:00,49.2,47.0,30.05,North,-999,0.0,0.0,92,0.00,,,-99.99,WeatherLink 5.7,2013-08-14 08:30:00,
2013-08-14 03:45:00,48.8,46.6,30.06,North,-999,0.0,0.0,92,0.00,,,-99.99,WeatherLink 5.7,2013-08-14 08:45:00,
2013-08-14 04:00:00,48.3,46.1,30.05,North,-999,0.0,0.0,92,0.00,,,-99.99,WeatherLink 5.7,2013-08-14 09:00:00,
2013-08-14 04:15:00,48.2,46.3,30.05,North,-999,0.0,0.0,93,0.00,,,-99.99,WeatherLink 5.7,2013-08-14 09:15:00,
2013-08-14 04:30:00,47.9,46.0,30.05,North,-999,0.0,0.0,93,0.00,,,-99.99,WeatherLink 5.7,2013-08-14 09:30:00,
2013-08-14 04:45:00,47.6,45.7,30.06,North,-999,0.0,0.0,93,0.00,,,-99.99,WeatherLink 5.7,2013-08-14 09:45:00,
2013-08-14 05:00:00,47.4,45.5,30.06,North,-999,0.0,0.0,93,0.00,,,-99.99,WeatherLink 5.7,2013-08-14 10:00:00,
2013-08-14 05:15:00,46.7,44.8,30.08,North,-999,0.0,0.0,93,0.00,,,-99.99,WeatherLink 5.7,2013-08-14 10:15:00,
2013-08-14 05:30:00,46.7,45.1,30.08,North,-999,0.0,0.0,94,0.00,,,-99.99,WeatherLink 5.7,2013-08-14 10:30:00,
2013-08-14 05:45:00,47.0,45.4,30.08,North,-999,0.0,0.0,94,0.00,,,-99.99,WeatherLink 5.7,2013-08-14 10:45:00,
2013-08-14 06:00:00,46.5,44.9,30.08,North,-999,0.0,0.0,94,0.00,,,-99.99,WeatherLink 5.7,2013-08-14 11:00:00,
2013-08-14 06:15:00,46.4,44.8,30.08,North,-999,0.0,0.0,94,0.00,,,-99.99,WeatherLink 5.7,2013-08-14 11:15:00,
2013-08-14 06:30:00,46.2,44.8,30.08,North,-999,0.0,0.0,95,0.00,,,-99.99,WeatherLink 5.7,2013-08-14 11:30:00,
2013-08-14 06:45:00,46.4,45.0,30.08,North,-999,0.0,0.0,95,0.00,,,-99.99,WeatherLink 5.7,2013-08-14 11:45:00,
2013-08-14 07:00:00,46.7,45.3,30.09,North,-999,0.0,0.0,95,0.00,,,-99.99,WeatherLink 5.7,2013-08-14 12:00:00,
2013-08-14 07:15:00,47.3,45.9,30.10,North,-999,0.0,0.0,95,0.00,,,-99.99,WeatherLink 5.7,2013-08-14 12:15:00,
2013-08-14 07:30:00,49.5,48.4,30.09,North,-999,0.0,0.0,96,0.00,,,-99.99,WeatherLink 5.7,2013-08-14 12:30:00,
2013-08-14 07:45:00,50.7,49.6,30.08,North,-999,0.0,0.0,96,0.00,,,-99.99,WeatherLink 5.7,2013-08-14 12:45:00,
2013-08-14 08:00:00,51.7,50.6,30.08,North,-999,0.0,0.0,96,0.00,,,-99.99,WeatherLink 5.7,2013-08-14 13:00:00,
2013-08-14 08:15:00,53.6,52.8,30.08,North,-999,0.0,0.0,97,0.00,,,-99.99,WeatherLink 5.7,2013-08-14 13:15:00,
2013-08-14 08:30:00,56.0,55.2,30.09,North,-999,0.0,0.0,97,0.00,,,-99.99,WeatherLink 5.7,2013-08-14 13:30:00,
2013-08-14 08:45:00,57.5,56.4,30.09,SE,135,0.0,1.0,96,0.00,,,-99.99,WeatherLink 5.7,2013-08-14 13:45:00,
2013-08-14 09:00:00,59.5,57.8,30.09,North,-999,0.0,0.0,94,0.00,,,-99.99,WeatherLink 5.7,2013-08-14 14:00:00,
2013-08-14 09:15:00,60.7,56.2,30.09,ESE,112,0.0,1.0,85,0.00,,,-99.99,WeatherLink 5.7,2013-08-14 14:15:00,
2013-08-14 09:30:00,60.9,54.3,30.09,North,-999,0.0,0.0,79,0.00,,,-99.99,WeatherLink 5.7,2013-08-14 14:30:00,
2013-08-14 09:45:00,62.9,55.6,30.09,SW,225,0.0,1.0,77,0.00,,,-99.99,WeatherLink 5.7,2013-08-14 14:45:00,
2013-08-14 10:00:00,65.8,54.9,30.09,SW,225,0.0,1.0,68,0.00,,,-99.99,WeatherLink 5.7,2013-08-14 15:00:00,
2013-08-14 10:15:00,65.3,53.2,30.09,North,0,0.0,1.0,65,0.00,,,-99.99,WeatherLink 5.7,2013-08-14 15:15:00,
2013-08-14 10:30:00,66.3,53.3,30.09,West,270,0.0,4.0,63,0.00,,,-99.99,WeatherLink 5.7,2013-08-14 15:30:00,
2013-08-14 10:45:00,67.8,52.5,30.09,NW,315,0.0,1.0,58,0.00,,,-99.99,WeatherLink 5.7,2013-08-14 15:45:00,
2013-08-14 11:00:00,68.1,51.8,30.08,West,270,0.0,5.0,56,0.00,,,-99.99,WeatherLink 5.7,2013-08-14 16:00:00,
2013-08-14 11:15:00,68.3,51.0,30.09,West,270,0.0,7.0,54,0.00,,,-99.99,WeatherLink 5.7,2013-08-14 16:15:00,
2013-08-14 11:30:00,68.9,52.1,30.08,WNW,292,0.0,6.0,55,0.00,,,-99.99,WeatherLink 5.7,2013-08-14 16:30:00,
2013-08-14 11:45:00,69.8,52.4,30.08,NNW,337,0.0,2.0,54,0.00,,,-99.99,WeatherLink 5.7,2013-08-14 16:45:00,
2013-08-14 12:00:00,68.4,49.6,30.08,West,270,0.0,5.0,51,0.00,,,-99.99,WeatherLink 5.7,2013-08-14 17:00:00,
2013-08-14 12:15:00,68.4,51.1,30.08,West,270,0.0,3.0,54,0.00,,,-99.99,WeatherLink 5.7,2013-08-14 17:15:00,
2013-08-14 12:30:00,69.1,52.2,30.08,West,270,0.0,7.0,55,0.00,,,-99.99,WeatherLink 5.7,2013-08-14 17:30:00,
2013-08-14 12:45:00,70.1,51.1,30.07,NNW,337,0.0,1.0,51,0.00,,,-99.99,WeatherLink 5.7,2013-08-14 17:45:00,
2013-08-14 13:00:00,68.9,51.6,30.07,West,270,0.0,2.0,54,0.00,,,-99.99,WeatherLink 5.7,2013-08-14 18:00:00,
2013-08-14 13:15:00,69.8,50.3,30.06,West,270,1.0,9.0,50,0.00,,,-99.99,WeatherLink 5.7,2013-08-14 18:15:00,
2013-08-14 13:30:00,69.4,51.0,30.06,NW,315,0.0,4.0,52,0.00,,,-99.99,WeatherLink 5.7,2013-08-14 18:30:00,
2013-08-14 13:45:00,69.9,49.3,30.06,WSW,247,0.0,5.0,48,0.00,,,-99.99,WeatherLink 5.7,2013-08-14 18:45:00,
2013-08-14 14:00:00,70.1,51.1,30.06,WSW,247,0.0,1.0,51,0.00,,,-99.99,WeatherLink 5.7,2013-08-14 19:00:00,
2013-08-14 14:15:00,70.6,50.0,30.06,West,270,0.0,6.0,48,0.00,,,-99.99,WeatherLink 5.7,2013-08-14 19:15:00,
2013-08-14 14:30:00,71.1,51.0,30.06,West,270,0.0,5.0,49,0.00,,,-99.99,WeatherLink 5.7,2013-08-14 19:30:00,
2013-08-14 14:45:00,70.8,52.8,30.05,North,0,0.0,1.0,53,0.00,,,-99.99,WeatherLink 5.7,2013-08-14 19:45:00,
2013-08-14 15:00:00,72.3,51.5,30.04,North,0,0.0,3.0,48,0.00,,,-99.99,WeatherLink 5.7,2013-08-14 20:00:00,
2013-08-14 15:15:00,74.2,53.2,30.04,WNW,292,0.0,5.0,48,0.00,,,-99.99,WeatherLink 5.7,2013-08-14 20:15:00,
2013-08-14 15:30:00,73.2,52.3,30.04,NE,45,0.0,6.0,48,0.00,,,-99.99,WeatherLink 5.7,2013-08-14 20:30:00,
2013-08-14 15:45:00,72.8,52.5,30.03,SE,135,0.0,3.0,49,0.00,,,-99.99,WeatherLink 5.7,2013-08-14 20:45:00,
2013-08-14 16:00:00,71.8,52.2,30.03,West,270,0.0,5.0,50,0.00,,,-99.99,WeatherLink 5.7,2013-08-14 21:00:00,
2013-08-14 16:15:00,71.1,52.6,30.03,WNW,292,0.0,1.0,52,0.00,,,-99.99,WeatherLink 5.7,2013-08-14 21:15:00,
2013-08-14 16:30:00,71.3,52.2,30.03,North,-999,0.0,0.0,51,0.00,,,-99.99,WeatherLink 5.7,2013-08-14 21:30:00,
2013-08-14 16:45:00,72.7,53.0,30.02,NW,315,0.0,1.0,50,0.00,,,-99.99,WeatherLink 5.7,2013-08-14 21:45:00,
2013-08-14 17:00:00,72.3,51.5,30.03,North,-999,0.0,0.0,48,0.00,,,-99.99,WeatherLink 5.7,2013-08-14 22:00:00,
2013-08-14 17:15:00,72.1,54.5,30.02,North,-999,0.0,0.0,54,0.00,,,-99.99,WeatherLink 5.7,2013-08-14 22:15:00,
2013-08-14 17:30:00,70.9,54.4,30.02,North,-999,0.0,0.0,56,0.00,,,-99.99,WeatherLink 5.7,2013-08-14 22:30:00,
2013-08-14 17:45:00,70.9,56.3,30.02,North,-999,0.0,0.0,60,0.00,,,-99.99,WeatherLink 5.7,2013-08-14 22:45:00,
2013-08-14 18:00:00,73.5,53.2,30.01,North,-999,0.0,0.0,49,0.00,,,-99.99,WeatherLink 5.7,2013-08-14 23:00:00,
2013-08-14 18:15:00,74.7,55.4,30.01,North,-999,0.0,0.0,51,0.00,,,-99.99,WeatherLink 5.7,2013-08-14 23:15:00,
2013-08-14 18:30:00,74.2,54.9,30.01,North,-999,0.0,0.0,51,0.00,,,-99.99,WeatherLink 5.7,2013-08-14 23:30:00,
2013-08-14 18:45:00,73.2,56.6,30.01,North,-999,0.0,0.0,56,0.00,,,-99.99,WeatherLink 5.7,2013-08-14 23:45:00,
2013-08-14 19:00:00,73.2,58.0,30.01,North,-999,0.0,0.0,59,0.00,,,-99.99,WeatherLink 5.7,2013-08-15 00:00:00,
2013-08-14 19:15:00,71.3,56.7,30.01,North,-999,0.0,0.0,60,0.00,,,-99.99,WeatherLink 5.7,2013-08-15 00:15:00,
2013-08-14 19:30:00,68.4,56.2,30.01,North,-999,0.0,0.0,65,0.00,,,-99.99,WeatherLink 5.7,2013-08-15 00:30:00,
2013-08-14 19:45:00,65.8,55.3,30.01,North,-999,0.0,0.0,69,0.00,,,-99.99,WeatherLink 5.7,2013-08-15 00:45:00,
2013-08-14 20:00:00,63.9,55.1,30.01,North,-999,0.0,0.0,73,0.00,,,-99.99,WeatherLink 5.7,2013-08-15 01:00:00,
2013-08-14 20:15:00,62.3,53.9,30.01,North,-999,0.0,0.0,74,0.00,,,-99.99,WeatherLink 5.7,2013-08-15 01:15:00,
2013-08-14 20:30:00,61.2,53.9,30.01,North,-999,0.0,0.0,77,0.00,,,-99.99,WeatherLink 5.7,2013-08-15 01:30:00,
2013-08-14 20:45:00,59.9,53.4,30.01,North,-999,0.0,0.0,79,0.00,,,-99.99,WeatherLink 5.7,2013-08-15 01:45:00,
2013-08-14 21:00:00,59.0,53.5,30.01,North,-999,0.0,0.0,82,0.00,,,-99.99,WeatherLink 5.7,2013-08-15 02:00:00,
2013-08-14 21:15:00,58.1,53.3,30.01,North,-999,0.0,0.0,84,0.00,,,-99.99,WeatherLink 5.7,2013-08-15 02:15:00,
2013-08-14 21:30:00,57.3,52.8,30.01,North,-999,0.0,0.0,85,0.00,,,-99.99,WeatherLink 5.7,2013-08-15 02:30:00,
2013-08-14 21:45:00,56.9,52.8,30.02,North,-999,0.0,0.0,86,0.00,,,-99.99,WeatherLink 5.7,2013-08-15 02:45:00,
2013-08-14 22:00:00,56.0,52.2,30.01,North,-999,0.0,0.0,87,0.00,,,-99.99,WeatherLink 5.7,2013-08-15 03:00:00,
2013-08-14 22:15:00,55.6,52.1,30.02,North,-999,0.0,0.0,88,0.00,,,-99.99,WeatherLink 5.7,2013-08-15 03:15:00,
2013-08-14 22:30:00,55.3,52.1,30.02,North,-999,0.0,0.0,89,0.00,,,-99.99,WeatherLink 5.7,2013-08-15 03:30:00,
2013-08-14 22:45:00,55.0,51.8,30.02,North,-999,0.0,0.0,89,0.00,,,-99.99,WeatherLink 5.7,2013-08-15 03:45:00,
2013-08-14 23:00:00,54.7,51.8,30.02,North,-999,0.0,0.0,90,0.00,,,-99.99,WeatherLink 5.7,2013-08-15 04:00:00,
2013-08-14 23:15:00,54.4,51.5,30.02,North,-999,0.0,0.0,90,0.00,,,-99.99,WeatherLink 5.7,2013-08-15 04:15:00,
2013-08-14 23:30:00,54.2,51.3,30.02,North,-999,0.0,0.0,90,0.00,,,-99.99,WeatherLink 5.7,2013-08-15 04:30:00,
2013-08-14 23:45:00,53.9,51.3,30.02,North,-999,0.0,0.0,91,0.00,,,-99.99,WeatherLink 5.7,2013-08-15 04:45:00,